createdAt,value
2023-04-21T00:00:16.988Z,9.97
2023-04-21T00:02:46.873Z,10.00
2023-04-21T00:05:15.868Z,9.94
2023-04-21T00:07:43.738Z,9.87
2023-04-21T00:10:12.830Z,9.88
2023-04-21T00:12:41.505Z,9.91
2023-04-21T00:15:10.299Z,9.83
2023-04-21T00:17:39.465Z,9.84
2023-04-21T00:20:10.851Z,9.77
2023-04-21T00:22:38.754Z,9.59
2023-04-21T00:25:08.264Z,9.54
2023-04-21T00:27:37.030Z,9.58
2023-04-21T00:30:07.155Z,9.59
2023-04-21T00:32:35.077Z,9.48
2023-04-21T00:35:02.968Z,9.42
2023-04-21T00:37:31.612Z,9.40
2023-04-21T00:40:00.322Z,9.31
2023-04-21T00:42:29.081Z,9.07
2023-04-21T00:44:57.739Z,9.32
2023-04-21T00:47:25.739Z,9.29
2023-04-21T00:49:53.622Z,9.15
2023-04-21T00:52:21.614Z,9.14
2023-04-21T00:54:49.585Z,9.02
2023-04-21T00:57:17.952Z,9.14
2023-04-21T00:59:45.804Z,9.04
2023-04-21T01:02:17.321Z,9.00
2023-04-21T01:04:45.946Z,8.95
2023-04-21T01:07:14.798Z,9.26
2023-04-21T01:09:43.523Z,9.28
2023-04-21T01:12:13.498Z,9.31
2023-04-21T01:14:42.233Z,9.37
2023-04-21T01:17:10.804Z,9.27
2023-04-21T01:19:43.932Z,9.28
2023-04-21T01:22:13.762Z,9.27
2023-04-21T01:24:49.752Z,9.29
2023-04-21T01:27:21.131Z,9.14
2023-04-21T01:29:52.916Z,9.11
2023-04-21T01:32:26.863Z,8.95
2023-04-21T01:34:58.297Z,8.92
2023-04-21T01:37:33.494Z,8.91
2023-04-21T01:40:07.617Z,8.76
2023-04-21T01:42:43.694Z,8.76
2023-04-21T01:45:12.479Z,8.88
2023-04-21T01:47:40.579Z,8.72
2023-04-21T01:50:10.267Z,8.96
2023-04-21T01:52:39.000Z,8.84
2023-04-21T01:55:07.692Z,8.60
2023-04-21T01:57:36.430Z,8.82
2023-04-21T02:00:06.354Z,8.94
2023-04-21T02:02:35.127Z,8.96
2023-04-21T02:05:04.244Z,8.91
2023-04-21T02:07:33.001Z,8.90
2023-04-21T02:10:01.979Z,8.95
2023-04-21T02:12:30.699Z,8.83
2023-04-21T02:14:58.601Z,9.02
2023-04-21T02:17:26.458Z,8.98
2023-04-21T02:19:55.155Z,8.91
2023-04-21T02:22:23.362Z,8.94
2023-04-21T02:24:51.821Z,8.91
2023-04-21T02:27:19.599Z,8.82
2023-04-21T02:29:48.223Z,8.90
2023-04-21T02:32:25.649Z,8.89
2023-04-21T02:34:55.121Z,8.66
2023-04-21T02:37:24.314Z,8.85
2023-04-21T02:39:52.281Z,8.80
2023-04-21T02:42:20.248Z,8.53
2023-04-21T02:44:49.091Z,8.54
2023-04-21T02:47:17.837Z,8.73
2023-04-21T02:49:46.612Z,8.64
2023-04-21T02:52:15.313Z,8.71
2023-04-21T02:54:43.963Z,8.78
2023-04-21T02:57:11.769Z,8.83
2023-04-21T02:59:39.573Z,8.83
2023-04-21T03:02:07.415Z,8.79
2023-04-21T03:04:36.493Z,8.95
2023-04-21T03:07:04.380Z,8.88
2023-04-21T03:09:32.288Z,8.91
2023-04-21T03:12:00.108Z,8.94
2023-04-21T03:14:27.949Z,8.94
2023-04-21T03:16:56.741Z,9.01
2023-04-21T03:19:24.693Z,9.01
2023-04-21T03:21:53.331Z,9.09
2023-04-21T03:24:21.707Z,8.95
2023-04-21T03:26:51.068Z,8.99
2023-04-21T03:29:20.054Z,8.89
2023-04-21T03:31:49.004Z,8.86
2023-04-21T03:34:16.986Z,8.88
2023-04-21T03:36:44.771Z,8.89
2023-04-21T03:39:19.860Z,8.86
2023-04-21T03:41:48.768Z,8.89
2023-04-21T03:44:16.616Z,8.88
2023-04-21T03:46:45.331Z,8.92
2023-04-21T03:49:13.210Z,8.83
2023-04-21T03:51:41.954Z,8.60
2023-04-21T03:54:09.734Z,8.35
2023-04-21T03:56:37.730Z,8.21
2023-04-21T03:59:06.415Z,8.41
2023-04-21T04:01:37.232Z,8.28
2023-04-21T04:04:05.482Z,8.00
2023-04-21T04:06:33.568Z,8.14
2023-04-21T04:09:04.755Z,8.32
2023-04-21T04:11:33.313Z,8.60
2023-04-21T04:14:01.167Z,8.82
2023-04-21T04:16:30.129Z,8.91
2023-04-21T04:18:58.852Z,9.11
2023-04-21T04:21:28.502Z,9.27
2023-04-21T04:23:57.089Z,9.37
2023-04-21T04:26:25.901Z,9.51
2023-04-21T04:28:56.699Z,9.50
2023-04-21T04:31:25.707Z,9.74
2023-04-21T04:33:55.788Z,9.74
2023-04-21T04:36:28.748Z,10.52
2023-04-21T04:38:58.671Z,15.03
2023-04-21T04:41:31.060Z,16.73
2023-04-21T04:44:00.982Z,16.53
2023-04-21T04:46:29.907Z,16.58
2023-04-21T04:48:58.614Z,15.13
2023-04-21T04:51:27.695Z,15.09
2023-04-21T04:53:56.389Z,14.39
2023-04-21T04:56:25.933Z,14.40
2023-04-21T04:58:54.647Z,13.44
2023-04-21T05:01:24.587Z,13.04
2023-04-21T05:03:54.215Z,12.87
2023-04-21T05:06:24.233Z,12.57
2023-04-21T05:08:52.096Z,12.90
2023-04-21T05:11:20.885Z,14.13
2023-04-21T05:13:49.591Z,15.54
2023-04-21T05:16:19.189Z,16.96
2023-04-21T05:18:51.154Z,17.67
2023-04-21T05:21:27.963Z,15.78
2023-04-21T05:23:59.442Z,14.97
2023-04-21T05:26:30.149Z,13.59
2023-04-21T05:28:59.271Z,14.03
2023-04-21T05:31:28.940Z,14.28
2023-04-21T05:33:58.435Z,16.50
2023-04-21T05:36:28.187Z,16.13
2023-04-21T05:38:55.977Z,15.50
2023-04-21T05:41:24.871Z,18.67
2023-04-21T05:43:52.718Z,18.17
2023-04-21T05:46:21.752Z,17.60
2023-04-21T05:48:50.416Z,17.65
2023-04-21T05:51:19.071Z,16.08
2023-04-21T05:53:47.829Z,15.61
2023-04-21T05:56:16.445Z,15.92
2023-04-21T05:58:44.280Z,15.93
2023-04-21T06:01:13.386Z,14.95
2023-04-21T06:03:41.304Z,14.81
2023-04-21T06:06:11.711Z,15.78
2023-04-21T06:08:40.398Z,14.95
2023-04-21T06:11:08.341Z,15.33
2023-04-21T06:13:38.230Z,14.96
2023-04-21T06:16:06.992Z,15.62
2023-04-21T06:18:36.726Z,15.27
2023-04-21T06:21:05.824Z,16.22
2023-04-21T06:23:33.725Z,15.71
2023-04-21T06:26:07.152Z,16.32
2023-04-21T06:28:37.093Z,16.72
2023-04-21T06:31:08.680Z,17.32
2023-04-21T06:33:37.092Z,20.29
2023-04-21T06:36:06.671Z,17.58
2023-04-21T06:38:36.352Z,20.87
2023-04-21T06:41:05.877Z,21.73
2023-04-21T06:43:34.525Z,24.44
2023-04-21T06:46:04.179Z,26.68
2023-04-21T06:48:32.296Z,23.76
2023-04-21T06:51:02.857Z,22.22
2023-04-21T06:53:31.838Z,24.47
2023-04-21T06:56:00.440Z,26.07
2023-04-21T06:58:28.936Z,25.58
2023-04-21T07:00:58.588Z,25.78
2023-04-21T07:03:27.247Z,27.71
2023-04-21T07:05:55.826Z,25.40
2023-04-21T07:08:25.886Z,27.22
2023-04-21T07:10:54.328Z,27.03
2023-04-21T07:13:22.773Z,26.79
2023-04-21T07:15:51.472Z,27.51
2023-04-21T07:18:19.949Z,27.89
2023-04-21T07:20:49.550Z,25.07
2023-04-21T07:23:19.575Z,26.55
2023-04-21T07:25:49.268Z,27.10
2023-04-21T07:28:18.865Z,27.45
2023-04-21T07:30:47.413Z,24.64
2023-04-21T07:33:16.428Z,19.75
2023-04-21T07:35:46.006Z,18.58
2023-04-21T07:38:15.648Z,18.60
2023-04-21T07:40:43.519Z,18.12
2023-04-21T07:43:11.438Z,18.46
2023-04-21T07:45:40.164Z,19.35
2023-04-21T07:48:09.739Z,18.72
2023-04-21T07:50:37.772Z,18.68
2023-04-21T07:53:06.562Z,19.87
2023-04-21T07:55:37.433Z,19.43
2023-04-21T07:58:06.988Z,18.76
2023-04-21T08:00:36.856Z,18.63
2023-04-21T08:03:04.753Z,17.98
2023-04-21T08:05:35.857Z,18.15
2023-04-21T08:08:06.029Z,18.09
2023-04-21T08:10:34.380Z,18.41
2023-04-21T08:13:06.618Z,18.72
2023-04-21T08:15:35.536Z,18.41
2023-04-21T08:18:03.331Z,18.56
2023-04-21T08:20:32.951Z,19.11
2023-04-21T08:23:01.539Z,19.01
2023-04-21T08:25:29.601Z,19.30
2023-04-21T08:28:02.043Z,19.28
2023-04-21T08:30:30.222Z,18.83
2023-04-21T08:32:59.896Z,19.94
2023-04-21T08:35:27.668Z,18.92
2023-04-21T08:37:57.677Z,18.45
2023-04-21T08:40:36.508Z,19.64
2023-04-21T08:43:10.069Z,19.15
2023-04-21T08:45:37.956Z,19.72
2023-04-21T08:48:07.247Z,18.74
2023-04-21T08:50:36.446Z,18.64
2023-04-21T08:53:04.272Z,19.16
2023-04-21T08:55:33.854Z,19.78
2023-04-21T08:58:07.100Z,19.71
2023-04-21T09:00:41.660Z,20.14
2023-04-21T09:03:23.187Z,20.66
2023-04-21T09:06:07.014Z,20.21
2023-04-21T09:08:43.130Z,19.32
2023-04-21T09:11:15.943Z,19.75
2023-04-21T09:13:45.573Z,20.57
2023-04-21T09:16:22.395Z,20.57
2023-04-21T09:18:51.902Z,20.24
2023-04-21T09:21:21.258Z,20.78
2023-04-21T09:23:52.664Z,20.83
2023-04-21T09:26:23.470Z,20.60
2023-04-21T09:28:53.840Z,20.69
2023-04-21T09:31:29.435Z,19.72
2023-04-21T09:34:00.779Z,20.33
2023-04-21T09:36:32.351Z,20.71
2023-04-21T09:41:35.507Z,20.72
2023-04-21T09:44:06.890Z,21.52
2023-04-21T09:46:37.875Z,20.63
2023-04-21T09:49:07.194Z,20.88
2023-04-21T09:54:33.025Z,20.68
2023-04-21T09:57:04.855Z,20.53
2023-04-21T09:59:47.618Z,21.20
2023-04-21T10:02:20.652Z,21.34
2023-04-21T10:04:49.507Z,20.51
2023-04-21T10:07:18.389Z,20.45
2023-04-21T10:09:56.880Z,20.28
2023-04-21T10:12:27.701Z,19.63
2023-04-21T10:14:58.522Z,18.89
2023-04-21T10:17:27.861Z,20.08
2023-04-21T10:19:59.673Z,19.68
2023-04-21T10:22:33.781Z,20.03
2023-04-21T10:25:04.971Z,20.99
2023-04-21T10:27:42.192Z,20.51
2023-04-21T10:30:23.261Z,21.37
2023-04-21T10:33:05.965Z,21.62
2023-04-21T10:36:03.020Z,20.89
2023-04-21T10:38:43.997Z,21.17
2023-04-21T10:41:30.861Z,20.97
2023-04-21T10:44:12.344Z,20.79
2023-04-21T10:47:01.243Z,20.81
2023-04-21T10:49:31.599Z,21.13
2023-04-21T10:52:00.518Z,21.25
2023-04-21T10:54:50.229Z,21.85
2023-04-21T10:57:20.864Z,21.13
2023-04-21T10:59:50.004Z,20.60
2023-04-21T11:02:20.127Z,21.17
2023-04-21T11:04:54.530Z,20.86
2023-04-21T11:07:25.464Z,20.44
2023-04-21T11:10:07.947Z,20.86
2023-04-21T11:12:41.874Z,20.56
2023-04-21T11:15:14.648Z,20.63
2023-04-21T11:17:47.443Z,21.01
2023-04-21T11:20:15.275Z,21.34
2023-04-21T11:22:43.782Z,20.08
2023-04-21T11:25:19.117Z,20.95
2023-04-21T11:27:56.787Z,20.57
2023-04-21T11:30:36.248Z,20.38
2023-04-21T11:33:05.077Z,20.78
2023-04-21T11:35:33.744Z,21.63
2023-04-21T11:38:08.852Z,21.66
2023-04-21T11:40:48.844Z,21.79
2023-04-21T11:43:17.769Z,21.81
2023-04-21T11:45:51.166Z,21.42
2023-04-21T11:48:20.068Z,22.10
2023-04-21T11:50:50.999Z,22.24
2023-04-21T11:53:20.294Z,21.46
2023-04-21T11:55:48.969Z,21.26
2023-04-21T11:58:18.175Z,20.69
2023-04-21T12:00:46.996Z,20.65
2023-04-21T12:03:16.480Z,20.24
2023-04-21T12:05:44.397Z,20.10
2023-04-21T12:08:16.725Z,19.91
2023-04-21T12:10:47.355Z,20.43
2023-04-21T12:13:23.929Z,20.07
2023-04-21T12:15:52.591Z,19.86
2023-04-21T12:18:21.598Z,19.62
2023-04-21T12:20:54.989Z,19.50
2023-04-21T12:23:23.690Z,19.39
2023-04-21T12:25:53.342Z,19.35
2023-04-21T12:28:21.309Z,19.25
2023-04-21T12:30:50.002Z,19.69
2023-04-21T12:33:17.959Z,19.77
2023-04-21T12:35:46.676Z,19.84
2023-04-21T12:38:14.552Z,19.94
2023-04-21T12:40:42.429Z,20.26
2023-04-21T12:43:11.083Z,20.76
2023-04-21T12:45:39.777Z,20.39
2023-04-21T12:48:08.492Z,19.27
2023-04-21T12:50:37.145Z,19.64
2023-04-21T12:53:05.822Z,19.36
2023-04-21T12:55:36.906Z,19.36
2023-04-21T12:58:05.552Z,19.76
2023-04-21T13:00:36.055Z,19.57
2023-04-21T13:03:05.069Z,19.77
2023-04-21T13:05:34.208Z,19.80
2023-04-21T13:08:02.876Z,19.56
2023-04-21T13:10:31.631Z,20.07
2023-04-21T13:13:00.295Z,20.20
2023-04-21T13:15:28.081Z,20.29
2023-04-21T13:17:55.900Z,20.00
2023-04-21T13:20:24.862Z,20.15
2023-04-21T13:22:53.602Z,20.78
2023-04-21T13:25:22.349Z,21.10
2023-04-21T13:27:52.874Z,20.86
2023-04-21T13:30:22.215Z,20.47
2023-04-21T13:32:51.031Z,20.41
2023-04-21T13:35:20.054Z,20.22
2023-04-21T13:37:50.372Z,20.23
2023-04-21T13:40:19.484Z,20.51
2023-04-21T13:42:48.183Z,20.33
2023-04-21T13:45:17.193Z,19.92
2023-04-21T13:47:46.759Z,19.68
2023-04-21T13:50:15.554Z,20.09
2023-04-21T13:52:44.679Z,19.75
2023-04-21T13:55:13.420Z,20.15
2023-04-21T13:57:42.435Z,20.18
2023-04-21T14:00:12.317Z,19.78
2023-04-21T14:02:42.181Z,19.68
2023-04-21T14:05:10.397Z,19.88
2023-04-21T14:07:39.292Z,19.72
2023-04-21T14:10:08.870Z,19.79
2023-04-21T14:12:37.552Z,19.78
2023-04-21T14:15:09.648Z,19.74
2023-04-21T14:17:38.369Z,19.55
2023-04-21T14:20:09.693Z,19.65
2023-04-21T14:22:39.816Z,19.59
2023-04-21T14:25:08.305Z,19.55
2023-04-21T14:27:37.172Z,20.04
2023-04-21T14:30:07.683Z,20.38
2023-04-21T14:32:36.384Z,20.21
2023-04-21T14:35:05.684Z,20.53
2023-04-21T14:37:35.250Z,20.37
2023-04-21T14:40:04.381Z,20.59
2023-04-21T14:42:33.346Z,20.70
2023-04-21T14:45:01.219Z,20.70
2023-04-21T14:47:29.821Z,20.80
2023-04-21T14:49:58.520Z,21.20
2023-04-21T14:52:27.672Z,21.16
2023-04-21T14:54:56.384Z,20.88
2023-04-21T14:57:24.991Z,21.17
2023-04-21T14:59:54.394Z,21.19
2023-04-21T15:02:23.256Z,21.19
2023-04-21T15:04:52.161Z,20.80
2023-04-21T15:07:24.316Z,20.67
2023-04-21T15:09:55.647Z,20.80
2023-04-21T15:12:24.372Z,21.16
2023-04-21T15:14:53.427Z,20.77
2023-04-21T15:17:22.030Z,21.14
2023-04-21T15:19:50.855Z,20.88
2023-04-21T15:22:19.682Z,21.13
2023-04-21T15:24:48.691Z,21.24
2023-04-21T15:27:17.766Z,21.33
2023-04-21T15:29:45.545Z,21.26
2023-04-21T15:32:15.186Z,21.24
2023-04-21T15:34:43.813Z,20.95
2023-04-21T15:37:12.578Z,20.52
2023-04-21T15:39:41.623Z,20.54
2023-04-21T15:42:10.381Z,20.27
2023-04-21T15:44:39.858Z,20.03
2023-04-21T15:47:08.590Z,19.77
2023-04-21T15:49:37.636Z,19.81
2023-04-21T15:52:07.292Z,20.18
2023-04-21T15:54:36.623Z,20.04
2023-04-21T15:57:05.905Z,20.06
2023-04-21T15:59:33.718Z,19.93
2023-04-21T16:02:02.747Z,19.80
2023-04-21T16:04:30.904Z,19.56
2023-04-21T16:06:59.681Z,19.89
2023-04-21T16:09:28.371Z,19.64
2023-04-21T16:11:57.611Z,19.59
2023-04-21T16:14:26.274Z,19.62
2023-04-21T16:16:55.031Z,19.63
2023-04-21T16:19:23.966Z,19.56
2023-04-21T16:21:53.472Z,19.39
2023-04-21T16:24:22.251Z,19.31
2023-04-21T16:26:51.023Z,19.36
2023-04-21T16:29:20.536Z,19.21
2023-04-21T16:31:49.278Z,19.12
2023-04-21T16:34:18.096Z,18.84
2023-04-21T16:36:47.474Z,18.78
2023-04-21T16:39:15.310Z,18.70
2023-04-21T16:41:44.005Z,18.52
2023-04-21T16:44:12.694Z,18.42
2023-04-21T16:46:41.607Z,18.35
2023-04-21T16:49:12.456Z,18.24
2023-04-21T16:51:44.781Z,18.02
2023-04-21T16:54:14.101Z,17.92
2023-04-21T16:56:42.865Z,17.54
2023-04-21T16:59:12.444Z,17.64
2023-04-21T17:01:41.296Z,17.47
2023-04-21T17:04:14.154Z,17.41
2023-04-21T17:06:43.358Z,17.45
2023-04-21T17:09:12.089Z,17.34
2023-04-21T17:11:41.637Z,17.23
2023-04-21T17:14:11.098Z,17.02
2023-04-21T17:16:40.968Z,16.99
2023-04-21T17:19:10.451Z,16.82
2023-04-21T17:21:39.121Z,16.78
2023-04-21T17:24:08.684Z,16.63
2023-04-21T17:26:37.720Z,16.49
2023-04-21T17:29:08.942Z,16.32
2023-04-21T17:31:38.713Z,16.16
2023-04-21T17:34:08.299Z,15.93
2023-04-21T17:36:37.072Z,15.88
2023-04-21T17:39:05.949Z,15.72
2023-04-21T17:41:35.537Z,15.57
2023-04-21T17:44:05.329Z,15.46
2023-04-21T17:46:34.218Z,15.52
2023-04-21T17:49:03.748Z,15.45
2023-04-21T17:51:32.854Z,15.35
2023-04-21T17:54:01.554Z,15.11
2023-04-21T17:56:31.247Z,15.10
2023-04-21T17:59:01.280Z,14.88
2023-04-21T18:01:31.141Z,14.77
2023-04-21T18:04:01.598Z,14.50
2023-04-21T18:06:31.992Z,14.56
2023-04-21T18:09:01.652Z,14.62
2023-04-21T18:11:31.470Z,14.50
2023-04-21T18:14:02.366Z,14.39
2023-04-21T18:16:30.302Z,14.23
2023-04-21T18:18:58.193Z,14.20
2023-04-21T18:21:28.467Z,14.07
2023-04-21T18:23:58.072Z,14.20
2023-04-21T18:26:29.127Z,14.09
2023-04-21T18:28:58.449Z,13.99
2023-04-21T18:31:29.054Z,13.83
2023-04-21T18:34:00.511Z,13.82
2023-04-21T18:36:32.480Z,14.05
2023-04-21T18:39:01.258Z,14.01
2023-04-21T18:41:30.841Z,14.10
2023-04-21T18:44:00.435Z,14.01
2023-04-21T18:46:37.900Z,14.12
2023-04-21T18:49:07.628Z,14.31
2023-04-21T18:51:37.238Z,14.05
2023-04-21T18:54:12.626Z,13.78
2023-04-21T18:56:41.501Z,13.89
2023-04-21T18:59:10.359Z,13.77
2023-04-21T19:01:40.566Z,13.61
2023-04-21T19:04:10.827Z,13.73
2023-04-21T19:06:39.885Z,13.91
2023-04-21T19:09:08.631Z,13.65
2023-04-21T19:11:38.354Z,13.46
2023-04-21T19:14:07.142Z,13.20
2023-04-21T19:16:36.898Z,13.35
2023-04-21T19:19:06.138Z,13.13
2023-04-21T19:21:35.802Z,13.07
2023-04-21T19:24:05.926Z,12.90
2023-04-21T19:26:35.832Z,13.00
2023-04-21T19:29:05.123Z,13.20
2023-04-21T19:31:33.944Z,13.34
2023-04-21T19:34:02.737Z,13.23
2023-04-21T19:36:31.693Z,13.23
2023-04-21T19:39:00.580Z,13.31
2023-04-21T19:41:30.151Z,13.24
2023-04-21T19:43:58.922Z,13.02
2023-04-21T19:46:28.596Z,13.16
2023-04-21T19:48:57.387Z,13.18
2023-04-21T19:51:28.076Z,13.12
2023-04-21T19:54:10.163Z,12.89
2023-04-21T19:56:41.142Z,13.11
2023-04-21T19:59:10.760Z,13.20
2023-04-21T20:01:39.922Z,13.27
2023-04-21T20:04:11.885Z,12.99
2023-04-21T20:06:41.844Z,12.86
2023-04-21T20:09:10.693Z,12.87
2023-04-21T20:11:39.463Z,12.88
2023-04-21T20:14:08.291Z,13.12
2023-04-21T20:16:38.303Z,12.87
2023-04-21T20:19:07.015Z,12.71
2023-04-21T20:21:36.628Z,12.37
2023-04-21T20:24:05.740Z,12.30
2023-04-21T20:26:35.645Z,12.34
2023-04-21T20:29:05.084Z,12.24
2023-04-21T20:31:34.818Z,12.22
2023-04-21T20:34:03.642Z,12.04
2023-04-21T20:36:33.749Z,12.17
2023-04-21T20:39:06.615Z,12.06
2023-04-21T20:41:35.386Z,11.95
2023-04-21T20:44:05.655Z,12.02
2023-04-21T20:46:35.353Z,11.81
2023-04-21T20:49:05.270Z,12.01
2023-04-21T20:51:35.126Z,11.85
2023-04-21T20:54:03.964Z,12.02
2023-04-21T20:56:33.587Z,12.17
2023-04-21T20:59:03.197Z,12.23
2023-04-21T21:01:37.009Z,12.38
2023-04-21T21:04:06.077Z,12.26
2023-04-21T21:06:35.213Z,12.22
2023-04-21T21:09:05.181Z,12.33
2023-04-21T21:11:33.940Z,12.39
2023-04-21T21:14:03.593Z,12.50
2023-04-21T21:16:33.265Z,12.25
2023-04-21T21:19:02.894Z,12.34
2023-04-21T21:21:31.838Z,12.11
2023-04-21T21:24:01.483Z,12.15
2023-04-21T21:26:30.829Z,12.10
2023-04-21T21:29:00.459Z,12.10
2023-04-21T21:31:30.145Z,12.02
2023-04-21T21:33:59.028Z,11.88
2023-04-21T21:36:28.628Z,11.97
2023-04-21T21:38:58.246Z,11.95
2023-04-21T21:41:27.935Z,11.92
2023-04-21T21:43:57.463Z,12.02
2023-04-21T21:46:27.125Z,12.01
2023-04-21T21:48:56.758Z,11.78
2023-04-21T21:51:28.114Z,11.92
2023-04-21T21:53:57.733Z,11.81
2023-04-21T21:56:27.716Z,11.80
2023-04-21T21:58:57.327Z,12.05
2023-04-21T22:01:26.229Z,12.02
2023-04-21T22:03:56.714Z,11.97
2023-04-21T22:06:28.717Z,11.91
2023-04-21T22:08:57.485Z,12.01
2023-04-21T22:11:26.290Z,11.88
2023-04-21T22:13:55.101Z,11.80
2023-04-21T22:16:24.692Z,11.42
2023-04-21T22:18:54.965Z,11.49
2023-04-21T22:21:28.510Z,11.68
2023-04-21T22:23:57.369Z,11.06
2023-04-21T22:26:26.864Z,10.69
2023-04-21T22:28:56.482Z,10.72
2023-04-21T22:31:26.118Z,10.69
2023-04-21T22:33:54.864Z,10.61
2023-04-21T22:36:24.881Z,10.68
2023-04-21T22:38:54.440Z,10.87
2023-04-21T22:41:23.288Z,11.02
2023-04-21T22:43:52.079Z,11.06
2023-04-21T22:46:21.160Z,11.06
2023-04-21T22:48:51.529Z,11.24
2023-04-21T22:51:21.712Z,11.24
2023-04-21T22:53:51.227Z,11.18
2023-04-21T22:56:19.996Z,11.45
2023-04-21T22:58:48.864Z,11.27
2023-04-21T23:01:17.713Z,11.14
2023-04-21T23:03:46.610Z,11.28
2023-04-21T23:06:15.456Z,11.26
2023-04-21T23:08:43.298Z,11.36
2023-04-21T23:11:12.133Z,11.29
2023-04-21T23:13:42.172Z,11.40
2023-04-21T23:16:10.998Z,11.28
2023-04-21T23:18:40.773Z,11.25
2023-04-21T23:21:09.533Z,11.32
2023-04-21T23:23:38.177Z,11.31
2023-04-21T23:26:06.984Z,11.10
2023-04-21T23:28:36.542Z,10.95
2023-04-21T23:31:06.327Z,11.13
2023-04-21T23:33:35.302Z,11.23
2023-04-21T23:36:05.093Z,11.16
2023-04-21T23:38:34.620Z,10.94
2023-04-21T23:41:04.206Z,11.19
2023-04-21T23:43:34.746Z,11.18
2023-04-21T23:46:04.792Z,11.24
2023-04-21T23:48:35.079Z,11.16
2023-04-21T23:51:04.074Z,11.28
2023-04-21T23:53:33.085Z,11.17
2023-04-21T23:56:02.678Z,11.25
2023-04-21T23:58:31.452Z,11.01
